Weather at Alonnisos Heliport

Public forecast

Using degrees Celsius for public forecast. Weather courtesy of forecast.io.

Closest aviation weather report (METAR) to Alonnisos Heliport

Closest report is Skiathos Island National Airport, 17.5 nm (32.4 km) W. Retrieved 2021/06/24 15:50 UTC (2 hours ago):

LGSK 241550Z 11004KT CAVOK 31/24 Q1015

Closest aviation forecast (TAF) to Alonnisos Heliport

Forecast is more than 12 hours old.

Closest forecast is Skiathos Island National Airport, 17.5 nm (32.4 km) W. Retrieved 2012/09/27 00:18 UTC (9 years ago):

TAF LGSK 272300Z 2800/2909 01010KT 9999 FEW020